sensor_id;sensor_type;location;lat;lon;timestamp;P1;durP1;ratioP1;P2;durP2;ratioP2
46158;SDS011;31888;44.512;26.104;2022-12-07T00:01:03;66.32;;;22.23;;
46158;SDS011;31888;44.512;26.104;2022-12-07T00:03:10;58.15;;;21.95;;
46158;SDS011;31888;44.512;26.104;2022-12-07T00:05:14;55.55;;;21.50;;
46158;SDS011;31888;44.512;26.104;2022-12-07T00:07:18;59.58;;;21.30;;
46158;SDS011;31888;44.512;26.104;2022-12-07T00:11:32;54.45;;;21.52;;
46158;SDS011;31888;44.512;26.104;2022-12-07T00:13:37;56.70;;;21.23;;
46158;SDS011;31888;44.512;26.104;2022-12-07T00:15:42;55.85;;;21.63;;
46158;SDS011;31888;44.512;26.104;2022-12-07T00:17:47;60.22;;;21.45;;
46158;SDS011;31888;44.512;26.104;2022-12-07T00:19:52;53.47;;;21.05;;
46158;SDS011;31888;44.512;26.104;2022-12-07T00:21:56;59.58;;;22.60;;
46158;SDS011;31888;44.512;26.104;2022-12-07T00:24:01;57.67;;;20.95;;
46158;SDS011;31888;44.512;26.104;2022-12-07T00:26:06;52.42;;;20.00;;
46158;SDS011;31888;44.512;26.104;2022-12-07T00:28:12;59.22;;;22.05;;
46158;SDS011;31888;44.512;26.104;2022-12-07T00:30:16;61.92;;;22.83;;
46158;SDS011;31888;44.512;26.104;2022-12-07T00:32:20;69.15;;;23.20;;
46158;SDS011;31888;44.512;26.104;2022-12-07T00:34:25;55.65;;;23.58;;
46158;SDS011;31888;44.512;26.104;2022-12-07T00:36:31;55.90;;;21.80;;
46158;SDS011;31888;44.512;26.104;2022-12-07T00:38:35;59.65;;;22.77;;
46158;SDS011;31888;44.512;26.104;2022-12-07T00:40:40;60.35;;;23.17;;
46158;SDS011;31888;44.512;26.104;2022-12-07T00:42:45;58.38;;;22.40;;
46158;SDS011;31888;44.512;26.104;2022-12-07T00:44:49;62.45;;;24.10;;
46158;SDS011;31888;44.512;26.104;2022-12-07T00:46:53;60.30;;;22.88;;
46158;SDS011;31888;44.512;26.104;2022-12-07T00:48:57;60.65;;;22.77;;
46158;SDS011;31888;44.512;26.104;2022-12-07T00:51:02;63.58;;;21.92;;
46158;SDS011;31888;44.512;26.104;2022-12-07T00:53:08;59.53;;;22.38;;
46158;SDS011;31888;44.512;26.104;2022-12-07T00:55:12;63.47;;;23.20;;
46158;SDS011;31888;44.512;26.104;2022-12-07T00:57:16;60.60;;;21.98;;
46158;SDS011;31888;44.512;26.104;2022-12-07T00:59:20;60.17;;;22.73;;
46158;SDS011;31888;44.512;26.104;2022-12-07T01:01:25;64.22;;;24.23;;
46158;SDS011;31888;44.512;26.104;2022-12-07T01:03:31;54.15;;;22.73;;
46158;SDS011;31888;44.512;26.104;2022-12-07T01:05:36;57.28;;;21.92;;
46158;SDS011;31888;44.512;26.104;2022-12-07T01:07:40;56.45;;;22.50;;
46158;SDS011;31888;44.512;26.104;2022-12-07T01:09:47;58.60;;;22.10;;
46158;SDS011;31888;44.512;26.104;2022-12-07T01:11:51;56.85;;;22.80;;
46158;SDS011;31888;44.512;26.104;2022-12-07T01:13:55;58.13;;;23.17;;
46158;SDS011;31888;44.512;26.104;2022-12-07T01:16:02;68.10;;;24.08;;
46158;SDS011;31888;44.512;26.104;2022-12-07T01:18:07;61.58;;;23.88;;
46158;SDS011;31888;44.512;26.104;2022-12-07T01:20:12;63.33;;;23.95;;
46158;SDS011;31888;44.512;26.104;2022-12-07T01:22:17;62.97;;;24.33;;
46158;SDS011;31888;44.512;26.104;2022-12-07T01:24:22;62.13;;;23.38;;
46158;SDS011;31888;44.512;26.104;2022-12-07T01:26:27;65.93;;;25.52;;
46158;SDS011;31888;44.512;26.104;2022-12-07T01:28:32;66.80;;;26.45;;
46158;SDS011;31888;44.512;26.104;2022-12-07T01:30:36;66.25;;;24.13;;
46158;SDS011;31888;44.512;26.104;2022-12-07T01:32:40;66.22;;;24.83;;
46158;SDS011;31888;44.512;26.104;2022-12-07T01:34:47;57.45;;;23.73;;
46158;SDS011;31888;44.512;26.104;2022-12-07T01:36:51;55.78;;;22.83;;
46158;SDS011;31888;44.512;26.104;2022-12-07T01:38:55;59.28;;;23.25;;
46158;SDS011;31888;44.512;26.104;2022-12-07T01:41:01;67.63;;;25.52;;
46158;SDS011;31888;44.512;26.104;2022-12-07T01:43:09;62.60;;;24.80;;
46158;SDS011;31888;44.512;26.104;2022-12-07T01:47:45;68.65;;;25.38;;
46158;SDS011;31888;44.512;26.104;2022-12-07T01:52:01;65.15;;;22.65;;
46158;SDS011;31888;44.512;26.104;2022-12-07T01:54:15;68.07;;;25.15;;
46158;SDS011;31888;44.512;26.104;2022-12-07T01:56:20;65.22;;;25.27;;
46158;SDS011;31888;44.512;26.104;2022-12-07T01:58:31;70.67;;;26.03;;
46158;SDS011;31888;44.512;26.104;2022-12-07T02:00:35;71.57;;;25.65;;
46158;SDS011;31888;44.512;26.104;2022-12-07T02:02:42;75.55;;;26.50;;
46158;SDS011;31888;44.512;26.104;2022-12-07T02:04:50;70.72;;;26.52;;
46158;SDS011;31888;44.512;26.104;2022-12-07T02:06:57;75.00;;;28.35;;
46158;SDS011;31888;44.512;26.104;2022-12-07T02:09:02;77.28;;;28.45;;
46158;SDS011;31888;44.512;26.104;2022-12-07T02:11:06;71.90;;;25.05;;
46158;SDS011;31888;44.512;26.104;2022-12-07T02:13:12;68.10;;;25.90;;
46158;SDS011;31888;44.512;26.104;2022-12-07T02:15:21;67.95;;;25.83;;
46158;SDS011;31888;44.512;26.104;2022-12-07T02:17:30;69.07;;;25.23;;
46158;SDS011;31888;44.512;26.104;2022-12-07T02:22:17;68.57;;;27.42;;
46158;SDS011;31888;44.512;26.104;2022-12-07T02:24:43;67.05;;;23.60;;
46158;SDS011;31888;44.512;26.104;2022-12-07T02:27:07;72.53;;;27.13;;
46158;SDS011;31888;44.512;26.104;2022-12-07T02:29:33;69.75;;;27.30;;
46158;SDS011;31888;44.512;26.104;2022-12-07T02:31:43;71.47;;;25.13;;
46158;SDS011;31888;44.512;26.104;2022-12-07T02:33:52;70.03;;;26.02;;
46158;SDS011;31888;44.512;26.104;2022-12-07T02:36:01;71.82;;;26.88;;
46158;SDS011;31888;44.512;26.104;2022-12-07T02:38:11;73.70;;;26.17;;
46158;SDS011;31888;44.512;26.104;2022-12-07T02:40:22;67.97;;;25.10;;
46158;SDS011;31888;44.512;26.104;2022-12-07T02:42:33;73.65;;;26.23;;
46158;SDS011;31888;44.512;26.104;2022-12-07T02:44:43;67.88;;;24.85;;
46158;SDS011;31888;44.512;26.104;2022-12-07T02:46:51;76.10;;;25.77;;
46158;SDS011;31888;44.512;26.104;2022-12-07T02:48:58;64.28;;;23.30;;
46158;SDS011;31888;44.512;26.104;2022-12-07T02:51:03;71.07;;;25.25;;
46158;SDS011;31888;44.512;26.104;2022-12-07T02:55:34;68.78;;;25.77;;
46158;SDS011;31888;44.512;26.104;2022-12-07T02:57:54;70.03;;;24.55;;
46158;SDS011;31888;44.512;26.104;2022-12-07T03:00:18;63.30;;;24.42;;
46158;SDS011;31888;44.512;26.104;2022-12-07T03:02:24;64.15;;;25.00;;
46158;SDS011;31888;44.512;26.104;2022-12-07T03:04:37;60.60;;;23.67;;
46158;SDS011;31888;44.512;26.104;2022-12-07T03:06:49;65.90;;;23.60;;
46158;SDS011;31888;44.512;26.104;2022-12-07T03:09:01;57.38;;;23.38;;
46158;SDS011;31888;44.512;26.104;2022-12-07T03:11:16;56.15;;;21.50;;
46158;SDS011;31888;44.512;26.104;2022-12-07T03:13:28;59.80;;;22.67;;
46158;SDS011;31888;44.512;26.104;2022-12-07T03:15:39;55.53;;;22.33;;
46158;SDS011;31888;44.512;26.104;2022-12-07T03:17:49;55.00;;;21.35;;
46158;SDS011;31888;44.512;26.104;2022-12-07T03:19:57;50.90;;;21.58;;
46158;SDS011;31888;44.512;26.104;2022-12-07T03:22:05;58.20;;;21.92;;
46158;SDS011;31888;44.512;26.104;2022-12-07T03:24:13;59.03;;;22.65;;
46158;SDS011;31888;44.512;26.104;2022-12-07T03:26:21;56.58;;;21.83;;
46158;SDS011;31888;44.512;26.104;2022-12-07T03:28:29;62.10;;;23.35;;
46158;SDS011;31888;44.512;26.104;2022-12-07T03:30:38;61.20;;;23.30;;
46158;SDS011;31888;44.512;26.104;2022-12-07T03:34:55;62.05;;;23.02;;
46158;SDS011;31888;44.512;26.104;2022-12-07T03:37:05;60.85;;;22.80;;
46158;SDS011;31888;44.512;26.104;2022-12-07T03:39:17;61.13;;;22.98;;
46158;SDS011;31888;44.512;26.104;2022-12-07T03:41:27;59.20;;;22.52;;
46158;SDS011;31888;44.512;26.104;2022-12-07T03:43:34;57.60;;;23.40;;
46158;SDS011;31888;44.512;26.104;2022-12-07T03:45:42;61.10;;;23.85;;
46158;SDS011;31888;44.512;26.104;2022-12-07T03:49:58;58.15;;;22.75;;
46158;SDS011;31888;44.512;26.104;2022-12-07T03:52:08;56.15;;;22.27;;
46158;SDS011;31888;44.512;26.104;2022-12-07T03:54:19;63.88;;;22.77;;
46158;SDS011;31888;44.512;26.104;2022-12-07T03:56:27;58.90;;;23.35;;
46158;SDS011;31888;44.512;26.104;2022-12-07T03:58:33;57.17;;;22.10;;
46158;SDS011;31888;44.512;26.104;2022-12-07T04:00:38;55.85;;;23.13;;
46158;SDS011;31888;44.512;26.104;2022-12-07T04:02:46;56.90;;;22.23;;
46158;SDS011;31888;44.512;26.104;2022-12-07T04:04:50;62.70;;;22.60;;
46158;SDS011;31888;44.512;26.104;2022-12-07T04:06:55;60.95;;;22.67;;
46158;SDS011;31888;44.512;26.104;2022-12-07T04:08:59;58.80;;;22.23;;
46158;SDS011;31888;44.512;26.104;2022-12-07T04:11:03;54.67;;;22.23;;
46158;SDS011;31888;44.512;26.104;2022-12-07T04:13:07;60.58;;;22.15;;
46158;SDS011;31888;44.512;26.104;2022-12-07T04:15:12;54.00;;;22.55;;
46158;SDS011;31888;44.512;26.104;2022-12-07T04:17:17;56.08;;;22.15;;
46158;SDS011;31888;44.512;26.104;2022-12-07T04:19:22;56.42;;;21.90;;
46158;SDS011;31888;44.512;26.104;2022-12-07T04:21:28;55.47;;;21.45;;
46158;SDS011;31888;44.512;26.104;2022-12-07T04:23:32;54.80;;;20.90;;
46158;SDS011;31888;44.512;26.104;2022-12-07T04:25:36;60.20;;;21.85;;
46158;SDS011;31888;44.512;26.104;2022-12-07T04:27:40;55.92;;;20.27;;
46158;SDS011;31888;44.512;26.104;2022-12-07T04:29:45;48.10;;;19.05;;
46158;SDS011;31888;44.512;26.104;2022-12-07T04:31:49;52.28;;;20.25;;
46158;SDS011;31888;44.512;26.104;2022-12-07T04:33:55;51.53;;;20.08;;
46158;SDS011;31888;44.512;26.104;2022-12-07T04:35:59;52.13;;;20.45;;
46158;SDS011;31888;44.512;26.104;2022-12-07T04:38:03;52.33;;;19.98;;
46158;SDS011;31888;44.512;26.104;2022-12-07T04:40:09;49.83;;;19.00;;
46158;SDS011;31888;44.512;26.104;2022-12-07T04:42:14;47.20;;;18.70;;
46158;SDS011;31888;44.512;26.104;2022-12-07T04:44:19;53.53;;;19.70;;
46158;SDS011;31888;44.512;26.104;2022-12-07T04:46:24;44.75;;;19.10;;
46158;SDS011;31888;44.512;26.104;2022-12-07T04:48:30;52.03;;;20.10;;
46158;SDS011;31888;44.512;26.104;2022-12-07T04:50:36;43.72;;;18.65;;
46158;SDS011;31888;44.512;26.104;2022-12-07T04:52:47;44.13;;;18.60;;
46158;SDS011;31888;44.512;26.104;2022-12-07T04:54:51;46.70;;;18.60;;
46158;SDS011;31888;44.512;26.104;2022-12-07T04:56:55;48.70;;;19.38;;
46158;SDS011;31888;44.512;26.104;2022-12-07T04:58:59;48.10;;;18.40;;
46158;SDS011;31888;44.512;26.104;2022-12-07T05:01:04;47.08;;;18.70;;
46158;SDS011;31888;44.512;26.104;2022-12-07T05:03:08;50.42;;;19.40;;
46158;SDS011;31888;44.512;26.104;2022-12-07T05:05:12;44.80;;;19.10;;
46158;SDS011;31888;44.512;26.104;2022-12-07T05:07:18;50.38;;;19.58;;
46158;SDS011;31888;44.512;26.104;2022-12-07T05:09:22;49.67;;;18.92;;
46158;SDS011;31888;44.512;26.104;2022-12-07T05:11:26;49.53;;;20.40;;
46158;SDS011;31888;44.512;26.104;2022-12-07T05:13:43;44.55;;;18.63;;
46158;SDS011;31888;44.512;26.104;2022-12-07T05:15:47;50.40;;;19.13;;
46158;SDS011;31888;44.512;26.104;2022-12-07T05:17:52;50.97;;;20.58;;
46158;SDS011;31888;44.512;26.104;2022-12-07T05:19:56;48.22;;;21.17;;
46158;SDS011;31888;44.512;26.104;2022-12-07T05:22:00;49.22;;;19.52;;
46158;SDS011;31888;44.512;26.104;2022-12-07T05:24:06;52.00;;;20.15;;
46158;SDS011;31888;44.512;26.104;2022-12-07T05:26:11;48.33;;;19.85;;
46158;SDS011;31888;44.512;26.104;2022-12-07T05:28:16;46.95;;;18.63;;
46158;SDS011;31888;44.512;26.104;2022-12-07T05:30:20;46.08;;;18.70;;
46158;SDS011;31888;44.512;26.104;2022-12-07T05:32:24;52.40;;;21.25;;
46158;SDS011;31888;44.512;26.104;2022-12-07T05:34:28;49.15;;;18.83;;
46158;SDS011;31888;44.512;26.104;2022-12-07T05:36:32;52.47;;;20.45;;
46158;SDS011;31888;44.512;26.104;2022-12-07T05:38:37;50.40;;;20.40;;
46158;SDS011;31888;44.512;26.104;2022-12-07T05:40:42;55.63;;;20.50;;
46158;SDS011;31888;44.512;26.104;2022-12-07T05:42:47;57.95;;;21.40;;
46158;SDS011;31888;44.512;26.104;2022-12-07T05:44:50;55.65;;;20.60;;
46158;SDS011;31888;44.512;26.104;2022-12-07T05:46:54;57.22;;;22.15;;
46158;SDS011;31888;44.512;26.104;2022-12-07T05:48:58;55.63;;;22.15;;
46158;SDS011;31888;44.512;26.104;2022-12-07T05:51:02;51.42;;;22.05;;
46158;SDS011;31888;44.512;26.104;2022-12-07T05:53:06;51.00;;;21.63;;
46158;SDS011;31888;44.512;26.104;2022-12-07T05:55:11;52.45;;;21.33;;
46158;SDS011;31888;44.512;26.104;2022-12-07T05:57:16;52.10;;;21.05;;
46158;SDS011;31888;44.512;26.104;2022-12-07T05:59:21;56.08;;;20.80;;
46158;SDS011;31888;44.512;26.104;2022-12-07T06:01:29;55.33;;;22.63;;
46158;SDS011;31888;44.512;26.104;2022-12-07T06:03:33;49.42;;;19.80;;
46158;SDS011;31888;44.512;26.104;2022-12-07T06:05:37;58.03;;;21.60;;
46158;SDS011;31888;44.512;26.104;2022-12-07T06:07:42;59.33;;;21.77;;
46158;SDS011;31888;44.512;26.104;2022-12-07T06:09:46;53.92;;;20.92;;
46158;SDS011;31888;44.512;26.104;2022-12-07T06:11:50;57.15;;;21.17;;
46158;SDS011;31888;44.512;26.104;2022-12-07T06:14:13;55.40;;;21.38;;
46158;SDS011;31888;44.512;26.104;2022-12-07T06:16:18;53.03;;;20.58;;
46158;SDS011;31888;44.512;26.104;2022-12-07T06:18:22;54.28;;;20.05;;
46158;SDS011;31888;44.512;26.104;2022-12-07T06:20:26;54.13;;;21.40;;
46158;SDS011;31888;44.512;26.104;2022-12-07T06:22:30;54.60;;;22.73;;
46158;SDS011;31888;44.512;26.104;2022-12-07T06:24:35;55.97;;;20.98;;
46158;SDS011;31888;44.512;26.104;2022-12-07T06:26:39;53.63;;;19.88;;
46158;SDS011;31888;44.512;26.104;2022-12-07T06:28:43;58.63;;;20.52;;
46158;SDS011;31888;44.512;26.104;2022-12-07T06:30:57;54.13;;;20.35;;
46158;SDS011;31888;44.512;26.104;2022-12-07T06:33:01;50.67;;;18.77;;
46158;SDS011;31888;44.512;26.104;2022-12-07T06:35:06;54.83;;;21.02;;
46158;SDS011;31888;44.512;26.104;2022-12-07T06:37:11;55.92;;;20.02;;
46158;SDS011;31888;44.512;26.104;2022-12-07T06:39:15;58.60;;;20.55;;
46158;SDS011;31888;44.512;26.104;2022-12-07T06:41:20;64.80;;;22.92;;
46158;SDS011;31888;44.512;26.104;2022-12-07T06:43:25;65.50;;;22.60;;
46158;SDS011;31888;44.512;26.104;2022-12-07T06:45:29;63.35;;;22.15;;
46158;SDS011;31888;44.512;26.104;2022-12-07T06:47:35;59.20;;;23.02;;
46158;SDS011;31888;44.512;26.104;2022-12-07T06:49:47;53.95;;;19.73;;
46158;SDS011;31888;44.512;26.104;2022-12-07T06:51:51;54.47;;;20.90;;
46158;SDS011;31888;44.512;26.104;2022-12-07T06:53:55;46.67;;;18.35;;
46158;SDS011;31888;44.512;26.104;2022-12-07T06:56:00;52.67;;;18.25;;
46158;SDS011;31888;44.512;26.104;2022-12-07T06:58:04;51.60;;;18.83;;
46158;SDS011;31888;44.512;26.104;2022-12-07T07:00:09;51.53;;;19.27;;
46158;SDS011;31888;44.512;26.104;2022-12-07T07:02:22;54.53;;;19.73;;
46158;SDS011;31888;44.512;26.104;2022-12-07T07:04:28;51.63;;;18.30;;
46158;SDS011;31888;44.512;26.104;2022-12-07T07:06:32;53.80;;;20.90;;
46158;SDS011;31888;44.512;26.104;2022-12-07T07:08:36;54.15;;;19.67;;
46158;SDS011;31888;44.512;26.104;2022-12-07T07:10:42;55.58;;;20.42;;
46158;SDS011;31888;44.512;26.104;2022-12-07T07:12:47;54.00;;;18.85;;
46158;SDS011;31888;44.512;26.104;2022-12-07T07:14:58;52.38;;;20.55;;
46158;SDS011;31888;44.512;26.104;2022-12-07T07:17:05;52.38;;;19.85;;
46158;SDS011;31888;44.512;26.104;2022-12-07T07:19:09;54.40;;;20.48;;
46158;SDS011;31888;44.512;26.104;2022-12-07T07:21:15;53.15;;;21.25;;
46158;SDS011;31888;44.512;26.104;2022-12-07T07:23:20;59.53;;;22.30;;
46158;SDS011;31888;44.512;26.104;2022-12-07T07:25:24;43.53;;;19.13;;
46158;SDS011;31888;44.512;26.104;2022-12-07T07:27:28;51.38;;;22.02;;
46158;SDS011;31888;44.512;26.104;2022-12-07T07:29:33;51.90;;;21.42;;
46158;SDS011;31888;44.512;26.104;2022-12-07T07:31:37;49.03;;;19.98;;
46158;SDS011;31888;44.512;26.104;2022-12-07T07:33:41;45.75;;;19.25;;
46158;SDS011;31888;44.512;26.104;2022-12-07T07:35:46;52.85;;;20.15;;
46158;SDS011;31888;44.512;26.104;2022-12-07T07:37:51;48.53;;;20.33;;
46158;SDS011;31888;44.512;26.104;2022-12-07T07:39:55;49.15;;;20.85;;
46158;SDS011;31888;44.512;26.104;2022-12-07T07:42:00;48.25;;;19.27;;
46158;SDS011;31888;44.512;26.104;2022-12-07T07:44:07;46.40;;;20.48;;
46158;SDS011;31888;44.512;26.104;2022-12-07T07:46:11;39.35;;;17.33;;
46158;SDS011;31888;44.512;26.104;2022-12-07T07:48:15;38.25;;;18.38;;
46158;SDS011;31888;44.512;26.104;2022-12-07T07:50:21;38.20;;;16.58;;
46158;SDS011;31888;44.512;26.104;2022-12-07T07:52:27;39.03;;;16.77;;
46158;SDS011;31888;44.512;26.104;2022-12-07T07:54:33;44.28;;;17.58;;
46158;SDS011;31888;44.512;26.104;2022-12-07T07:56:37;42.20;;;17.75;;
46158;SDS011;31888;44.512;26.104;2022-12-07T07:58:41;43.72;;;17.67;;
46158;SDS011;31888;44.512;26.104;2022-12-07T08:00:46;48.42;;;19.13;;
46158;SDS011;31888;44.512;26.104;2022-12-07T08:02:50;41.75;;;19.08;;
46158;SDS011;31888;44.512;26.104;2022-12-07T08:04:54;41.42;;;18.15;;
46158;SDS011;31888;44.512;26.104;2022-12-07T08:06:59;49.85;;;20.67;;
46158;SDS011;31888;44.512;26.104;2022-12-07T08:09:03;52.17;;;21.23;;
46158;SDS011;31888;44.512;26.104;2022-12-07T08:11:10;48.95;;;20.42;;
46158;SDS011;31888;44.512;26.104;2022-12-07T08:13:15;48.90;;;20.60;;
46158;SDS011;31888;44.512;26.104;2022-12-07T08:15:20;41.05;;;18.15;;
46158;SDS011;31888;44.512;26.104;2022-12-07T08:17:24;45.63;;;20.75;;
46158;SDS011;31888;44.512;26.104;2022-12-07T08:19:29;41.47;;;19.55;;
46158;SDS011;31888;44.512;26.104;2022-12-07T08:21:33;45.72;;;20.38;;
46158;SDS011;31888;44.512;26.104;2022-12-07T08:23:38;42.92;;;20.27;;
46158;SDS011;31888;44.512;26.104;2022-12-07T08:25:42;43.63;;;20.48;;
46158;SDS011;31888;44.512;26.104;2022-12-07T08:27:47;46.05;;;20.80;;
46158;SDS011;31888;44.512;26.104;2022-12-07T08:29:52;42.30;;;21.73;;
46158;SDS011;31888;44.512;26.104;2022-12-07T08:31:57;47.90;;;24.20;;
46158;SDS011;31888;44.512;26.104;2022-12-07T08:34:10;44.03;;;22.63;;
46158;SDS011;31888;44.512;26.104;2022-12-07T08:36:15;52.63;;;21.90;;
46158;SDS011;31888;44.512;26.104;2022-12-07T08:38:20;47.10;;;21.55;;
46158;SDS011;31888;44.512;26.104;2022-12-07T08:40:29;42.30;;;19.55;;
46158;SDS011;31888;44.512;26.104;2022-12-07T08:42:34;40.83;;;18.77;;
46158;SDS011;31888;44.512;26.104;2022-12-07T08:44:43;40.33;;;18.55;;
46158;SDS011;31888;44.512;26.104;2022-12-07T08:46:50;43.25;;;18.95;;
46158;SDS011;31888;44.512;26.104;2022-12-07T08:48:57;37.72;;;17.33;;
46158;SDS011;31888;44.512;26.104;2022-12-07T08:51:05;36.92;;;16.80;;
46158;SDS011;31888;44.512;26.104;2022-12-07T08:53:10;41.63;;;19.13;;
46158;SDS011;31888;44.512;26.104;2022-12-07T08:55:15;38.80;;;18.25;;
46158;SDS011;31888;44.512;26.104;2022-12-07T08:57:19;38.22;;;18.88;;
46158;SDS011;31888;44.512;26.104;2022-12-07T08:59:24;43.90;;;18.90;;
46158;SDS011;31888;44.512;26.104;2022-12-07T09:01:31;39.58;;;19.10;;
46158;SDS011;31888;44.512;26.104;2022-12-07T09:03:36;43.92;;;18.13;;
46158;SDS011;31888;44.512;26.104;2022-12-07T09:05:40;48.50;;;20.70;;
46158;SDS011;31888;44.512;26.104;2022-12-07T09:07:46;46.00;;;20.70;;
46158;SDS011;31888;44.512;26.104;2022-12-07T09:09:53;54.45;;;21.48;;
46158;SDS011;31888;44.512;26.104;2022-12-07T09:11:58;45.60;;;21.75;;
46158;SDS011;31888;44.512;26.104;2022-12-07T09:14:02;50.38;;;22.77;;
46158;SDS011;31888;44.512;26.104;2022-12-07T09:16:06;54.13;;;23.63;;
46158;SDS011;31888;44.512;26.104;2022-12-07T09:18:12;50.03;;;22.60;;
46158;SDS011;31888;44.512;26.104;2022-12-07T09:20:16;48.03;;;22.23;;
46158;SDS011;31888;44.512;26.104;2022-12-07T09:22:28;51.67;;;21.95;;
46158;SDS011;31888;44.512;26.104;2022-12-07T09:24:33;46.80;;;20.85;;
46158;SDS011;31888;44.512;26.104;2022-12-07T09:26:37;53.95;;;22.00;;
46158;SDS011;31888;44.512;26.104;2022-12-07T09:28:42;50.15;;;23.05;;
46158;SDS011;31888;44.512;26.104;2022-12-07T09:30:47;62.70;;;23.65;;
46158;SDS011;31888;44.512;26.104;2022-12-07T09:33:13;60.10;;;24.55;;
46158;SDS011;31888;44.512;26.104;2022-12-07T09:35:18;58.38;;;25.10;;
46158;SDS011;31888;44.512;26.104;2022-12-07T09:37:23;56.17;;;24.15;;
46158;SDS011;31888;44.512;26.104;2022-12-07T09:39:27;61.38;;;25.08;;
46158;SDS011;31888;44.512;26.104;2022-12-07T09:41:32;58.60;;;23.92;;
46158;SDS011;31888;44.512;26.104;2022-12-07T09:43:36;54.78;;;23.33;;
46158;SDS011;31888;44.512;26.104;2022-12-07T09:45:43;50.25;;;22.05;;
46158;SDS011;31888;44.512;26.104;2022-12-07T09:47:50;54.65;;;22.17;;
46158;SDS011;31888;44.512;26.104;2022-12-07T09:49:58;49.38;;;21.20;;
46158;SDS011;31888;44.512;26.104;2022-12-07T09:52:16;58.97;;;22.27;;
46158;SDS011;31888;44.512;26.104;2022-12-07T09:54:22;44.60;;;20.02;;
46158;SDS011;31888;44.512;26.104;2022-12-07T09:56:28;49.50;;;20.45;;
46158;SDS011;31888;44.512;26.104;2022-12-07T09:58:33;44.33;;;20.55;;
46158;SDS011;31888;44.512;26.104;2022-12-07T10:00:38;43.30;;;20.45;;
46158;SDS011;31888;44.512;26.104;2022-12-07T10:02:44;45.25;;;20.48;;
46158;SDS011;31888;44.512;26.104;2022-12-07T10:04:51;43.83;;;20.60;;
46158;SDS011;31888;44.512;26.104;2022-12-07T10:06:57;46.97;;;20.48;;
46158;SDS011;31888;44.512;26.104;2022-12-07T10:09:02;44.67;;;20.73;;
46158;SDS011;31888;44.512;26.104;2022-12-07T10:11:12;43.28;;;20.83;;
46158;SDS011;31888;44.512;26.104;2022-12-07T10:13:19;39.70;;;19.05;;
46158;SDS011;31888;44.512;26.104;2022-12-07T10:15:40;44.70;;;19.65;;
46158;SDS011;31888;44.512;26.104;2022-12-07T10:17:50;39.90;;;19.65;;
46158;SDS011;31888;44.512;26.104;2022-12-07T10:20:04;41.67;;;19.67;;
46158;SDS011;31888;44.512;26.104;2022-12-07T10:22:19;42.58;;;20.63;;
46158;SDS011;31888;44.512;26.104;2022-12-07T10:24:27;52.25;;;21.85;;
46158;SDS011;31888;44.512;26.104;2022-12-07T10:26:32;50.67;;;21.48;;
46158;SDS011;31888;44.512;26.104;2022-12-07T10:28:37;52.65;;;22.23;;
46158;SDS011;31888;44.512;26.104;2022-12-07T10:30:51;50.92;;;23.02;;
46158;SDS011;31888;44.512;26.104;2022-12-07T10:32:59;58.70;;;22.92;;
46158;SDS011;31888;44.512;26.104;2022-12-07T10:35:23;54.65;;;23.85;;
46158;SDS011;31888;44.512;26.104;2022-12-07T10:37:31;49.30;;;21.60;;
46158;SDS011;31888;44.512;26.104;2022-12-07T10:39:45;50.83;;;22.45;;
46158;SDS011;31888;44.512;26.104;2022-12-07T10:41:54;50.80;;;23.63;;
46158;SDS011;31888;44.512;26.104;2022-12-07T10:43:59;56.25;;;23.08;;
46158;SDS011;31888;44.512;26.104;2022-12-07T10:46:10;55.03;;;22.75;;
46158;SDS011;31888;44.512;26.104;2022-12-07T10:48:50;53.85;;;23.58;;
46158;SDS011;31888;44.512;26.104;2022-12-07T10:51:03;55.28;;;22.85;;
46158;SDS011;31888;44.512;26.104;2022-12-07T10:53:26;52.25;;;23.25;;
46158;SDS011;31888;44.512;26.104;2022-12-07T10:55:40;51.13;;;22.77;;
46158;SDS011;31888;44.512;26.104;2022-12-07T10:58:04;54.17;;;24.13;;
46158;SDS011;31888;44.512;26.104;2022-12-07T11:00:25;51.60;;;23.15;;
46158;SDS011;31888;44.512;26.104;2022-12-07T11:05:19;54.22;;;22.75;;
46158;SDS011;31888;44.512;26.104;2022-12-07T11:07:34;60.08;;;24.25;;
46158;SDS011;31888;44.512;26.104;2022-12-07T11:09:57;57.80;;;23.63;;
46158;SDS011;31888;44.512;26.104;2022-12-07T11:12:13;55.10;;;25.90;;
46158;SDS011;31888;44.512;26.104;2022-12-07T11:14:26;54.00;;;25.75;;
46158;SDS011;31888;44.512;26.104;2022-12-07T11:16:51;58.45;;;27.83;;
46158;SDS011;31888;44.512;26.104;2022-12-07T11:19:10;66.05;;;29.33;;
46158;SDS011;31888;44.512;26.104;2022-12-07T11:21:30;70.10;;;29.67;;
46158;SDS011;31888;44.512;26.104;2022-12-07T11:23:46;55.90;;;26.73;;
46158;SDS011;31888;44.512;26.104;2022-12-07T11:25:58;56.72;;;26.75;;
46158;SDS011;31888;44.512;26.104;2022-12-07T11:28:13;57.28;;;27.77;;
46158;SDS011;31888;44.512;26.104;2022-12-07T11:30:26;58.30;;;27.38;;
46158;SDS011;31888;44.512;26.104;2022-12-07T11:32:43;60.15;;;28.33;;
46158;SDS011;31888;44.512;26.104;2022-12-07T11:35:05;64.25;;;29.08;;
46158;SDS011;31888;44.512;26.104;2022-12-07T11:37:18;68.22;;;28.92;;
46158;SDS011;31888;44.512;26.104;2022-12-07T11:39:26;63.92;;;29.05;;
46158;SDS011;31888;44.512;26.104;2022-12-07T11:41:35;58.45;;;26.27;;
46158;SDS011;31888;44.512;26.104;2022-12-07T11:45:59;62.60;;;26.95;;
46158;SDS011;31888;44.512;26.104;2022-12-07T11:48:10;61.33;;;27.55;;
46158;SDS011;31888;44.512;26.104;2022-12-07T11:50:25;68.90;;;27.65;;
46158;SDS011;31888;44.512;26.104;2022-12-07T11:52:39;58.78;;;25.30;;
46158;SDS011;31888;44.512;26.104;2022-12-07T11:54:48;59.95;;;25.13;;
46158;SDS011;31888;44.512;26.104;2022-12-07T11:56:57;63.83;;;25.92;;
46158;SDS011;31888;44.512;26.104;2022-12-07T11:59:08;58.80;;;25.17;;
46158;SDS011;31888;44.512;26.104;2022-12-07T12:01:25;59.17;;;25.58;;
46158;SDS011;31888;44.512;26.104;2022-12-07T12:03:40;57.35;;;24.10;;
46158;SDS011;31888;44.512;26.104;2022-12-07T12:05:54;57.60;;;23.20;;
46158;SDS011;31888;44.512;26.104;2022-12-07T12:08:00;53.63;;;23.27;;
46158;SDS011;31888;44.512;26.104;2022-12-07T12:10:32;52.50;;;21.35;;
46158;SDS011;31888;44.512;26.104;2022-12-07T12:12:53;51.22;;;21.80;;
46158;SDS011;31888;44.512;26.104;2022-12-07T12:15:29;55.85;;;21.08;;
46158;SDS011;31888;44.512;26.104;2022-12-07T12:17:56;55.03;;;22.55;;
46158;SDS011;31888;44.512;26.104;2022-12-07T12:20:32;48.80;;;20.15;;
46158;SDS011;31888;44.512;26.104;2022-12-07T12:22:44;53.13;;;21.60;;
46158;SDS011;31888;44.512;26.104;2022-12-07T12:24:52;56.20;;;22.70;;
46158;SDS011;31888;44.512;26.104;2022-12-07T12:26:59;61.38;;;22.60;;
46158;SDS011;31888;44.512;26.104;2022-12-07T12:29:18;48.42;;;21.30;;
46158;SDS011;31888;44.512;26.104;2022-12-07T12:31:31;49.42;;;22.20;;
46158;SDS011;31888;44.512;26.104;2022-12-07T12:33:42;53.28;;;23.23;;
46158;SDS011;31888;44.512;26.104;2022-12-07T12:35:59;50.28;;;22.35;;
46158;SDS011;31888;44.512;26.104;2022-12-07T12:38:30;55.60;;;22.35;;